logo
Search for airport 
image banner adimage banner adimage banner ad
image banner ad

YDPO - Devonport

Located in Devonport, Australia

ICAO - YDPO, IATA - DPO

Data provided by Airmate  

General information

Coordinates: S41°10'11" E146°25'49"
Elevation is 33 feet MSL.
 
View others Airports in Tasmania

Operational data

Special qualification required
Current time UTC:
Current local time:
Weather at : YMLT - Launceston ( 78 km )
METAR: YMLT 131500Z AUTO 33006KT 9999 // NCD 10/09 Q1019 RF00.0/000.2
TAF: TAF AMD YMLT 131131Z 1311/1412 33006KT 9999 SCT050 FM132100 33008KT 9999 SCT015 FM140000 33012KT 9999 SCT040 FM141000 34008KT CAVOK PROB30 1318/1322 0300 FG
View NOTAMs / SUP AIP / TFR affecting this airport [VIEW]
Communications frequencies: [VIEW]

Runways:

RWY identifierQFULength (ft)Width (ft)SurfaceLDA (ft)
0676°6030148ASP
24256°6030148ASP
14156°288798GRS
32336°288798GRS

Airport contact information

Address: Devonport Australia

Other aviation service providers

Aviation club (not for profit)

Devon Port Aero Club

Devon Port Aero Club
president@devonportaeroclub.com.au+61408188683
+61408188683

Satellite view of YDPO